Time;durP1;ratioP1;P1;durP2;ratioP2;P2;SDS_P1;SDS_P2;PMS_P1;PMS_P2;Temp;Humidity;BMP_temperature;BMP_pressure;BME280_temperature;BME280_humidity;BME280_pressure;Samples;Min_cycle;Max_cycle;Signal;HPM_P1;HPM_P2
2022/10/29 00:01:48;;;;;;;18.65;3.38;;;;;;;;;;5086086;28;20040;-64
2022/10/29 00:04:14;;;;;;;18.25;3.45;;;;;;;;;;5070285;28;20029;-64
2022/10/29 00:06:40;;;;;;;20.25;3.88;;;;;;;;;;5069519;28;20586;-64
2022/10/29 00:09:06;;;;;;;18.15;3.92;;;;;;;;;;5072033;28;20036;-64
2022/10/29 00:11:33;;;;;;;19.00;3.83;;;;;;;;;;5073460;28;20041;-64
2022/10/29 00:14:00;;;;;;;19.05;3.95;;;;;;;;;;5073757;28;20749;-64
2022/10/29 00:16:27;;;;;;;19.55;3.65;;;;;;;;;;5074010;28;20048;-64
2022/10/29 00:18:54;;;;;;;15.05;4.00;;;;;;;;;;5072210;28;20045;-64
2022/10/29 00:21:21;;;;;;;17.80;3.80;;;;;;;;;;5073556;28;20094;-64
2022/10/29 00:23:47;;;;;;;18.52;3.78;;;;;;;;;;5073921;28;20096;-64
2022/10/29 00:26:14;;;;;;;17.40;3.17;;;;;;;;;;5073714;28;20051;-64
2022/10/29 00:28:40;;;;;;;18.15;3.45;;;;;;;;;;5073390;28;20052;-64
2022/10/29 00:31:08;;;;;;;18.42;3.90;;;;;;;;;;5073541;28;20032;-64
2022/10/29 00:33:34;;;;;;;14.93;3.45;;;;;;;;;;5106164;28;20043;-64
2022/10/29 00:36:00;;;;;;;14.05;3.47;;;;;;;;;;5073042;28;20490;-64
2022/10/29 00:38:27;;;;;;;13.32;3.55;;;;;;;;;;5105952;28;20419;-64
2022/10/29 00:40:54;;;;;;;14.68;3.13;;;;;;;;;;5073464;28;20092;-64
2022/10/29 00:43:22;;;;;;;17.75;3.22;;;;;;;;;;5073213;28;20036;-64
2022/10/29 00:45:53;;;;;;;12.77;3.85;;;;;;;;;;5073545;28;20098;-64
2022/10/29 00:48:20;;;;;;;20.77;4.13;;;;;;;;;;5105733;28;20032;-64
2022/10/29 00:50:47;;;;;;;17.80;3.95;;;;;;;;;;5072708;28;20148;-64
2022/10/29 00:53:14;;;;;;;12.20;3.55;;;;;;;;;;5073393;28;20037;-64
2022/10/29 00:55:40;;;;;;;10.05;3.20;;;;;;;;;;5105848;28;20501;-64
2022/10/29 00:58:06;;;;;;;15.43;3.45;;;;;;;;;;5072560;28;20087;-64
2022/10/29 01:00:32;;;;;;;14.98;3.42;;;;;;;;;;5105445;28;20149;-64
2022/10/29 01:02:58;;;;;;;19.45;3.60;;;;;;;;;;5072859;28;20479;-64
2022/10/29 01:05:25;;;;;;;20.00;3.97;;;;;;;;;;5072645;28;20071;-64
2022/10/29 01:07:52;;;;;;;13.55;3.20;;;;;;;;;;5072643;28;20049;-64
2022/10/29 01:10:21;;;;;;;14.18;3.15;;;;;;;;;;5072697;28;20179;-64
2022/10/29 01:13:01;;;;;;;12.25;3.05;;;;;;;;;;5072209;28;20048;-64
2022/10/29 01:15:43;;;;;;;11.55;3.08;;;;;;;;;;5072871;28;20490;-64
2022/10/29 01:18:09;;;;;;;14.63;3.42;;;;;;;;;;5072958;28;20102;-64
2022/10/29 01:20:54;;;;;;;11.60;3.83;;;;;;;;;;5070622;28;20095;-64
2022/10/29 01:23:39;;;;;;;14.40;4.18;;;;;;;;;;5054896;28;20079;-64
2022/10/29 01:26:25;;;;;;;17.55;5.30;;;;;;;;;;5072320;28;20040;-64
2022/10/29 01:28:54;;;;;;;12.73;3.50;;;;;;;;;;5033758;28;20056;-64
2022/10/29 01:31:23;;;;;;;12.02;3.53;;;;;;;;;;5072580;28;20113;-64
2022/10/29 01:33:56;;;;;;;11.93;3.47;;;;;;;;;;5104716;28;20110;-64
2022/10/29 01:36:36;;;;;;;12.68;3.38;;;;;;;;;;5072337;28;20048;-64
2022/10/29 01:39:08;;;;;;;10.30;2.90;;;;;;;;;;5104696;28;20036;-64
2022/10/29 01:41:57;;;;;;;10.55;3.30;;;;;;;;;;5104541;28;20059;-64
2022/10/29 01:44:34;;;;;;;9.93;2.85;;;;;;;;;;5072410;28;20048;-64
2022/10/29 01:47:02;;;;;;;9.93;3.10;;;;;;;;;;5072344;28;20482;-64
2022/10/29 01:49:37;;;;;;;8.15;2.90;;;;;;;;;;5071927;28;20036;-64
2022/10/29 01:52:04;;;;;;;10.88;3.30;;;;;;;;;;5071989;28;20043;-64
2022/10/29 01:54:30;;;;;;;10.50;3.60;;;;;;;;;;5072242;28;20491;-64
2022/10/29 01:56:57;;;;;;;7.00;3.40;;;;;;;;;;5071534;28;20392;-64
2022/10/29 01:59:23;;;;;;;8.70;3.33;;;;;;;;;;5072109;28;20048;-64
2022/10/29 02:01:55;;;;;;;9.15;3.08;;;;;;;;;;5072061;28;20036;-64
2022/10/29 02:04:34;;;;;;;7.05;2.75;;;;;;;;;;5071639;28;20042;-64
2022/10/29 02:07:00;;;;;;;9.57;3.45;;;;;;;;;;5071820;28;20489;-64
2022/10/29 02:09:31;;;;;;;12.40;3.78;;;;;;;;;;5070251;28;20040;-64
2022/10/29 02:12:19;;;;;;;7.25;3.70;;;;;;;;;;5071237;28;20048;-64
2022/10/29 02:14:45;;;;;;;11.73;3.65;;;;;;;;;;5071797;28;20407;-64
2022/10/29 02:17:11;;;;;;;14.65;3.70;;;;;;;;;;5071799;28;20032;-64
2022/10/29 02:19:37;;;;;;;8.82;3.35;;;;;;;;;;5071012;28;20073;-64
2022/10/29 02:22:04;;;;;;;8.00;3.83;;;;;;;;;;5071721;28;20494;-64
2022/10/29 02:24:30;;;;;;;17.95;4.63;;;;;;;;;;5071217;28;20045;-64
2022/10/29 02:26:56;;;;;;;7.72;3.90;;;;;;;;;;5071078;28;20041;-64
2022/10/29 02:29:22;;;;;;;16.25;4.07;;;;;;;;;;5071403;28;20045;-64
2022/10/29 02:31:48;;;;;;;14.25;4.53;;;;;;;;;;5070326;28;20071;-64
2022/10/29 02:34:15;;;;;;;7.65;3.35;;;;;;;;;;5103479;28;20040;-64
2022/10/29 02:36:40;;;;;;;10.65;3.25;;;;;;;;;;5071421;28;20472;-64
2022/10/29 02:39:06;;;;;;;7.97;3.35;;;;;;;;;;5071249;28;20068;-64
2022/10/29 02:41:32;;;;;;;38.75;4.85;;;;;;;;;;5070916;28;20529;-64
2022/10/29 02:43:59;;;;;;;16.08;3.65;;;;;;;;;;5071226;28;20045;-64
2022/10/29 02:46:25;;;;;;;21.05;3.80;;;;;;;;;;5071339;28;20040;-64
2022/10/29 02:48:51;;;;;;;15.73;3.70;;;;;;;;;;5070700;28;20040;-64
2022/10/29 02:51:17;;;;;;;29.48;4.57;;;;;;;;;;5071012;28;20742;-64
2022/10/29 02:53:43;;;;;;;13.05;3.55;;;;;;;;;;5070931;28;20079;-64
2022/10/29 02:56:09;;;;;;;11.73;3.45;;;;;;;;;;5070498;28;20123;-64
2022/10/29 02:58:35;;;;;;;21.45;4.00;;;;;;;;;;5070522;28;20435;-64
2022/10/29 03:01:02;;;;;;;10.95;3.35;;;;;;;;;;5103203;28;20402;-64
2022/10/29 03:03:28;;;;;;;16.13;3.80;;;;;;;;;;5070768;28;20036;-64
2022/10/29 03:05:54;;;;;;;10.48;3.40;;;;;;;;;;5103192;28;20078;-64
2022/10/29 03:08:20;;;;;;;12.82;3.95;;;;;;;;;;5070910;28;20784;-64
2022/10/29 03:10:46;;;;;;;7.47;3.75;;;;;;;;;;5069142;28;20036;-64
2022/10/29 03:13:13;;;;;;;7.82;4.25;;;;;;;;;;5070647;28;20056;-64
2022/10/29 03:15:43;;;;;;;5.55;3.88;;;;;;;;;;5070937;28;20045;-64
2022/10/29 03:18:09;;;;;;;9.00;3.80;;;;;;;;;;5069335;28;20056;-64
2022/10/29 03:20:35;;;;;;;8.52;4.18;;;;;;;;;;5052835;28;20084;-64
2022/10/29 03:23:01;;;;;;;5.50;3.83;;;;;;;;;;5069269;28;20083;-64
2022/10/29 03:25:27;;;;;;;19.63;5.57;;;;;;;;;;5070250;28;20040;-64
2022/10/29 03:27:53;;;;;;;27.25;6.05;;;;;;;;;;5070657;28;20044;-64
2022/10/29 03:30:19;;;;;;;48.10;6.55;;;;;;;;;;5069286;28;20120;-64
2022/10/29 03:32:46;;;;;;;46.47;6.70;;;;;;;;;;5070087;28;20494;-64
2022/10/29 03:35:12;;;;;;;21.25;6.47;;;;;;;;;;5103288;28;20052;-65
2022/10/29 03:37:39;;;;;;;26.23;6.53;;;;;;;;;;5070737;28;20072;-65
2022/10/29 03:40:05;;;;;;;13.30;6.22;;;;;;;;;;5102613;28;20086;-64
2022/10/29 03:42:31;;;;;;;15.25;5.72;;;;;;;;;;5071612;28;20045;-64
2022/10/29 03:44:57;;;;;;;11.80;6.00;;;;;;;;;;5107019;28;20406;-64
2022/10/29 03:47:24;;;;;;;8.88;5.35;;;;;;;;;;5074163;28;20048;-64
2022/10/29 03:49:50;;;;;;;8.73;5.22;;;;;;;;;;5074196;28;20044;-64
2022/10/29 03:52:17;;;;;;;13.65;5.68;;;;;;;;;;5074314;28;20048;-64
2022/10/29 03:54:43;;;;;;;9.15;5.88;;;;;;;;;;5073721;28;20049;-64
2022/10/29 03:57:09;;;;;;;8.55;6.10;;;;;;;;;;5106792;28;20103;-64
2022/10/29 03:59:35;;;;;;;12.82;6.50;;;;;;;;;;5106785;28;20363;-64
2022/10/29 04:02:01;;;;;;;11.30;6.65;;;;;;;;;;5106415;28;20051;-64
2022/10/29 04:04:27;;;;;;;14.85;7.25;;;;;;;;;;5074251;28;20037;-64
2022/10/29 04:06:53;;;;;;;10.20;6.28;;;;;;;;;;5073968;28;20091;-64
2022/10/29 04:09:19;;;;;;;33.50;8.23;;;;;;;;;;5073761;28;20072;-64
2022/10/29 04:11:45;;;;;;;22.10;8.05;;;;;;;;;;5076581;28;20177;-64
2022/10/29 04:14:11;;;;;;;11.13;7.38;;;;;;;;;;5074763;28;20045;-64
2022/10/29 04:16:37;;;;;;;15.13;6.75;;;;;;;;;;5073471;28;20048;-64
2022/10/29 04:19:03;;;;;;;20.38;7.97;;;;;;;;;;5073715;28;20186;-64
2022/10/29 04:21:29;;;;;;;20.35;8.05;;;;;;;;;;5072752;28;20604;-64
2022/10/29 04:23:57;;;;;;;21.33;7.88;;;;;;;;;;5072285;28;20055;-64
2022/10/29 04:26:23;;;;;;;26.05;7.95;;;;;;;;;;5073472;28;20534;-64
2022/10/29 04:28:49;;;;;;;23.88;7.78;;;;;;;;;;5073699;28;20075;-64
2022/10/29 04:31:16;;;;;;;15.02;7.38;;;;;;;;;;5071668;28;20044;-64
2022/10/29 04:33:42;;;;;;;17.73;8.82;;;;;;;;;;5089228;28;20057;-64
2022/10/29 04:36:08;;;;;;;26.67;9.80;;;;;;;;;;5073693;28;20120;-64
2022/10/29 04:38:34;;;;;;;16.42;8.15;;;;;;;;;;5073349;28;20032;-64
2022/10/29 04:41:01;;;;;;;20.33;7.75;;;;;;;;;;5072248;28;20032;-64
2022/10/29 04:43:27;;;;;;;14.85;7.40;;;;;;;;;;5073620;28;20467;-64
2022/10/29 04:45:54;;;;;;;17.27;7.25;;;;;;;;;;5105508;28;20048;-64
2022/10/29 04:48:20;;;;;;;20.27;9.25;;;;;;;;;;5073464;28;20094;-64
2022/10/29 04:50:47;;;;;;;17.50;8.65;;;;;;;;;;5073318;28;20036;-64
2022/10/29 04:53:14;;;;;;;17.95;8.73;;;;;;;;;;5105619;28;20125;-64
2022/10/29 04:55:40;;;;;;;19.38;9.85;;;;;;;;;;5105351;28;20051;-64
2022/10/29 04:58:06;;;;;;;22.20;9.90;;;;;;;;;;5073357;28;20049;-64
2022/10/29 05:00:33;;;;;;;23.70;9.57;;;;;;;;;;5105250;28;20544;-64
2022/10/29 05:02:59;;;;;;;28.27;10.20;;;;;;;;;;5073265;28;20043;-64
2022/10/29 05:05:25;;;;;;;23.50;10.50;;;;;;;;;;5073010;28;20471;-64
2022/10/29 05:07:58;;;;;;;28.80;9.95;;;;;;;;;;5071402;28;20471;-64
2022/10/29 05:10:27;;;;;;;31.35;10.88;;;;;;;;;;5072941;28;20052;-64
2022/10/29 05:12:57;;;;;;;27.38;9.63;;;;;;;;;;5072816;28;20052;-64
2022/10/29 05:15:23;;;;;;;25.50;10.57;;;;;;;;;;5072640;28;20040;-64
2022/10/29 05:17:49;;;;;;;30.45;11.38;;;;;;;;;;5073159;28;20040;-64
2022/10/29 05:20:15;;;;;;;26.50;10.45;;;;;;;;;;5072935;28;20080;-64
2022/10/29 05:22:41;;;;;;;32.08;10.80;;;;;;;;;;5072549;28;20052;-64
2022/10/29 05:25:07;;;;;;;32.65;11.00;;;;;;;;;;5071164;28;20048;-64
2022/10/29 05:27:33;;;;;;;31.67;11.13;;;;;;;;;;5072354;28;20063;-64
2022/10/29 05:29:59;;;;;;;32.38;11.52;;;;;;;;;;5071041;28;20467;-64
2022/10/29 05:32:28;;;;;;;32.72;11.65;;;;;;;;;;5054359;28;20041;-64
2022/10/29 05:34:54;;;;;;;31.90;11.27;;;;;;;;;;5072600;28;20047;-64
2022/10/29 05:37:20;;;;;;;29.65;11.02;;;;;;;;;;5072517;28;20147;-64
2022/10/29 05:39:46;;;;;;;35.35;13.27;;;;;;;;;;5072036;28;20123;-64
2022/10/29 05:42:12;;;;;;;30.45;11.80;;;;;;;;;;5071052;28;20404;-64
2022/10/29 05:44:38;;;;;;;27.25;11.82;;;;;;;;;;5072467;28;20044;-64
2022/10/29 05:47:05;;;;;;;27.25;11.18;;;;;;;;;;5071968;28;20126;-64
2022/10/29 05:49:31;;;;;;;26.92;12.10;;;;;;;;;;5072354;28;20036;-64
2022/10/29 05:51:57;;;;;;;29.35;11.52;;;;;;;;;;5072294;28;20119;-64
2022/10/29 05:54:23;;;;;;;32.33;12.57;;;;;;;;;;5070518;28;20097;-64
2022/10/29 05:56:49;;;;;;;29.33;11.88;;;;;;;;;;5072202;28;20039;-64
2022/10/29 05:59:16;;;;;;;25.33;12.50;;;;;;;;;;5072028;28;20050;-64
2022/10/29 06:01:42;;;;;;;24.38;12.77;;;;;;;;;;5071741;28;20045;-64
2022/10/29 06:04:08;;;;;;;35.10;13.50;;;;;;;;;;5072134;28;20036;-64
2022/10/29 06:06:34;;;;;;;27.13;12.32;;;;;;;;;;5070823;28;20127;-64
2022/10/29 06:09:00;;;;;;;28.58;13.25;;;;;;;;;;5071327;28;20044;-64
2022/10/29 06:11:26;;;;;;;32.88;12.90;;;;;;;;;;5070253;28;20391;-64
2022/10/29 06:13:55;;;;;;;27.35;12.80;;;;;;;;;;5070007;28;20044;-64
2022/10/29 06:16:21;;;;;;;21.65;12.65;;;;;;;;;;5071360;28;20040;-64
2022/10/29 06:18:47;;;;;;;23.33;14.05;;;;;;;;;;5071568;28;20037;-64
2022/10/29 06:21:13;;;;;;;22.63;12.30;;;;;;;;;;5071712;28;20377;-64
2022/10/29 06:23:40;;;;;;;26.48;13.38;;;;;;;;;;5071327;28;20052;-64
2022/10/29 06:26:06;;;;;;;28.77;13.25;;;;;;;;;;5071223;28;20198;-64
2022/10/29 06:28:32;;;;;;;21.33;12.65;;;;;;;;;;5069738;28;20507;-64
2022/10/29 06:30:58;;;;;;;23.23;13.32;;;;;;;;;;5069314;28;20047;-64
2022/10/29 06:33:24;;;;;;;25.77;13.65;;;;;;;;;;5069856;28;20048;-64
2022/10/29 06:35:50;;;;;;;31.58;14.02;;;;;;;;;;5071239;28;20040;-64
2022/10/29 06:38:16;;;;;;;27.52;13.18;;;;;;;;;;5071006;28;20079;-64
2022/10/29 06:40:42;;;;;;;55.08;14.65;;;;;;;;;;5069813;28;20055;-64
2022/10/29 06:43:11;;;;;;;24.42;13.15;;;;;;;;;;5071089;28;20040;-64
2022/10/29 06:45:38;;;;;;;26.20;13.80;;;;;;;;;;5070842;28;20367;-64
2022/10/29 06:48:04;;;;;;;40.65;14.55;;;;;;;;;;5071111;28;20396;-64
2022/10/29 06:50:31;;;;;;;28.17;13.52;;;;;;;;;;5069431;28;20455;-64
2022/10/29 06:52:58;;;;;;;31.42;13.32;;;;;;;;;;5070507;28;20052;-64
2022/10/29 06:55:24;;;;;;;24.88;12.35;;;;;;;;;;5070957;28;20041;-64
2022/10/29 06:57:57;;;;;;;35.05;14.55;;;;;;;;;;5071013;28;20044;-64
2022/10/29 07:00:23;;;;;;;22.75;12.88;;;;;;;;;;5070680;28;20142;-64
2022/10/29 07:02:50;;;;;;;27.48;13.35;;;;;;;;;;5070856;28;20052;-64
2022/10/29 07:05:16;;;;;;;28.60;14.13;;;;;;;;;;5070863;28;20040;-64
2022/10/29 07:07:42;;;;;;;31.88;14.15;;;;;;;;;;5070060;28;20427;-64
2022/10/29 07:10:08;;;;;;;27.13;14.20;;;;;;;;;;5069598;28;20040;-64
2022/10/29 07:12:40;;;;;;;23.20;13.98;;;;;;;;;;5070549;28;20456;-64
2022/10/29 07:15:07;;;;;;;24.92;14.00;;;;;;;;;;5070264;28;20041;-64
2022/10/29 07:17:33;;;;;;;21.10;13.23;;;;;;;;;;5069359;28;20047;-64
2022/10/29 07:19:59;;;;;;;19.05;12.88;;;;;;;;;;5069283;28;20399;-64
2022/10/29 07:22:25;;;;;;;23.33;13.15;;;;;;;;;;5070482;28;20479;-64
2022/10/29 07:24:51;;;;;;;20.65;13.13;;;;;;;;;;5069496;28;20123;-64
2022/10/29 07:27:17;;;;;;;20.60;13.10;;;;;;;;;;5070589;28;20094;-64
2022/10/29 07:29:43;;;;;;;20.17;13.23;;;;;;;;;;5070238;28;20048;-64
2022/10/29 07:32:09;;;;;;;23.33;13.55;;;;;;;;;;5070506;28;20047;-64
2022/10/29 07:34:35;;;;;;;20.85;13.50;;;;;;;;;;5070782;28;20115;-64
2022/10/29 07:37:01;;;;;;;20.08;13.93;;;;;;;;;;5070326;28;20045;-64
2022/10/29 07:39:27;;;;;;;20.95;13.77;;;;;;;;;;5069234;28;20043;-64
2022/10/29 07:41:53;;;;;;;22.80;13.55;;;;;;;;;;5070717;28;20076;-64
2022/10/29 07:44:20;;;;;;;23.45;13.32;;;;;;;;;;5068719;28;20036;-64
2022/10/29 07:46:46;;;;;;;20.55;13.60;;;;;;;;;;5070609;28;20033;-64
2022/10/29 07:49:12;;;;;;;24.58;14.10;;;;;;;;;;5069128;28;20044;-64
2022/10/29 07:51:39;;;;;;;21.10;14.35;;;;;;;;;;5070058;28;20086;-64
2022/10/29 07:54:05;;;;;;;23.77;14.40;;;;;;;;;;5070486;28;20037;-64
2022/10/29 07:56:31;;;;;;;33.60;14.75;;;;;;;;;;5070378;28;20063;-64
2022/10/29 07:58:57;;;;;;;25.63;13.93;;;;;;;;;;5068725;28;20044;-64
2022/10/29 08:01:23;;;;;;;21.83;13.60;;;;;;;;;;5070598;28;20055;-64
2022/10/29 08:03:49;;;;;;;20.80;14.25;;;;;;;;;;5070519;28;20076;-64
2022/10/29 08:06:15;;;;;;;22.88;14.13;;;;;;;;;;5100757;28;20060;-64
2022/10/29 08:08:41;;;;;;;20.77;13.80;;;;;;;;;;5069852;28;20486;-64
2022/10/29 08:11:08;;;;;;;21.45;13.93;;;;;;;;;;5070177;28;20044;-64
2022/10/29 08:13:34;;;;;;;23.42;13.82;;;;;;;;;;5069572;28;20056;-64
2022/10/29 08:16:00;;;;;;;22.83;14.32;;;;;;;;;;5068536;28;20044;-65
2022/10/29 08:18:26;;;;;;;25.98;15.10;;;;;;;;;;5070169;28;20044;-65
2022/10/29 08:20:53;;;;;;;25.98;14.55;;;;;;;;;;5068460;28;20090;-65
2022/10/29 08:23:19;;;;;;;25.23;13.93;;;;;;;;;;5070200;28;20036;-64
2022/10/29 08:25:45;;;;;;;28.23;15.25;;;;;;;;;;5069970;28;20044;-64
2022/10/29 08:28:12;;;;;;;25.25;15.25;;;;;;;;;;5051413;28;20097;-64
2022/10/29 08:30:39;;;;;;;27.50;16.13;;;;;;;;;;5071227;28;20157;-64
2022/10/29 08:33:06;;;;;;;27.58;14.48;;;;;;;;;;5072167;28;20383;-64
2022/10/29 08:35:32;;;;;;;37.50;15.63;;;;;;;;;;5073374;28;20064;-64
2022/10/29 08:37:58;;;;;;;35.28;16.02;;;;;;;;;;5073703;28;20372;-64
2022/10/29 08:40:29;;;;;;;28.85;14.05;;;;;;;;;;5073594;28;20059;-64
2022/10/29 08:42:58;;;;;;;38.10;16.50;;;;;;;;;;5105438;28;20044;-64
2022/10/29 08:45:45;;;;;;;34.60;15.98;;;;;;;;;;5073595;28;20051;-64
2022/10/29 08:48:20;;;;;;;32.45;15.95;;;;;;;;;;5073030;28;20061;-64
2022/10/29 08:50:52;;;;;;;31.55;15.82;;;;;;;;;;5072805;28;20032;-64
2022/10/29 08:53:23;;;;;;;34.67;16.05;;;;;;;;;;5073076;28;20070;-64
2022/10/29 08:55:49;;;;;;;36.70;17.85;;;;;;;;;;5073265;28;20037;-64
2022/10/29 08:58:32;;;;;;;41.55;17.67;;;;;;;;;;5072807;28;20057;-64
2022/10/29 09:00:59;;;;;;;30.52;16.52;;;;;;;;;;5105797;28;20055;-64
2022/10/29 09:03:28;;;;;;;32.05;16.85;;;;;;;;;;5071787;28;20037;-64
2022/10/29 09:05:54;;;;;;;34.15;16.52;;;;;;;;;;5072320;28;20125;-64
2022/10/29 09:08:26;;;;;;;38.80;17.60;;;;;;;;;;5072775;28;20056;-64
2022/10/29 09:11:04;;;;;;;36.30;16.17;;;;;;;;;;5072647;28;20442;-64
2022/10/29 09:13:33;;;;;;;35.75;16.48;;;;;;;;;;5072224;28;20045;-64
2022/10/29 09:15:59;;;;;;;37.92;17.15;;;;;;;;;;5073014;28;20041;-64
2022/10/29 09:18:25;;;;;;;39.30;18.02;;;;;;;;;;5072996;28;20067;-64
2022/10/29 09:20:54;;;;;;;35.22;17.48;;;;;;;;;;5072475;28;20037;-64
2022/10/29 09:23:44;;;;;;;34.13;15.95;;;;;;;;;;5071500;28;20390;-64
2022/10/29 09:26:15;;;;;;;40.35;17.50;;;;;;;;;;5072706;28;20072;-64
2022/10/29 09:28:55;;;;;;;38.13;18.40;;;;;;;;;;5054194;28;20052;-64
2022/10/29 09:31:21;;;;;;;37.30;18.52;;;;;;;;;;5072547;28;20098;-64
2022/10/29 09:33:49;;;;;;;42.63;18.90;;;;;;;;;;5072607;28;20131;-64
2022/10/29 09:36:19;;;;;;;40.05;19.30;;;;;;;;;;5070781;28;20681;-64
2022/10/29 09:38:48;;;;;;;43.17;20.73;;;;;;;;;;5072492;28;20082;-64
2022/10/29 09:41:15;;;;;;;38.78;19.95;;;;;;;;;;5072154;28;20131;-64
2022/10/29 09:43:47;;;;;;;38.08;20.23;;;;;;;;;;5071916;28;20048;-64
2022/10/29 09:46:28;;;;;;;43.42;19.67;;;;;;;;;;5072250;28;20109;-64
2022/10/29 09:49:00;;;;;;;40.88;20.50;;;;;;;;;;5072031;28;20044;-64
2022/10/29 09:51:29;;;;;;;36.08;18.40;;;;;;;;;;5071949;28;20111;-64
2022/10/29 09:53:55;;;;;;;35.13;18.58;;;;;;;;;;5072061;28;20135;-65
2022/10/29 09:56:21;;;;;;;33.17;18.80;;;;;;;;;;5072217;28;20044;-65
2022/10/29 09:58:51;;;;;;;37.80;17.83;;;;;;;;;;5071674;28;20367;-65
2022/10/29 10:01:17;;;;;;;34.90;19.02;;;;;;;;;;5072287;28;20044;-64
2022/10/29 10:03:46;;;;;;;37.75;18.63;;;;;;;;;;5072023;28;20471;-64
2022/10/29 10:06:13;;;;;;;40.63;18.33;;;;;;;;;;5070274;28;20048;-64
2022/10/29 10:08:58;;;;;;;31.23;17.67;;;;;;;;;;5070248;28;20376;-64
2022/10/29 10:11:25;;;;;;;36.33;18.27;;;;;;;;;;5069719;28;20045;-64
2022/10/29 10:13:52;;;;;;;38.60;17.52;;;;;;;;;;5069842;28;20098;-64
2022/10/29 10:16:26;;;;;;;31.10;16.95;;;;;;;;;;5070469;28;20085;-64
2022/10/29 10:18:52;;;;;;;35.08;17.35;;;;;;;;;;5071188;28;20433;-64
2022/10/29 10:21:29;;;;;;;34.97;17.42;;;;;;;;;;5071740;28;20169;-64
2022/10/29 10:23:56;;;;;;;33.97;17.10;;;;;;;;;;5071348;28;20079;-64
2022/10/29 10:26:38;;;;;;;39.78;17.67;;;;;;;;;;5070856;28;20040;-64
2022/10/29 10:29:23;;;;;;;39.22;17.42;;;;;;;;;;5070997;28;20048;-64
2022/10/29 10:31:50;;;;;;;31.35;17.23;;;;;;;;;;5071328;28;20040;-64
2022/10/29 10:34:18;;;;;;;31.60;15.57;;;;;;;;;;5103266;28;20068;-64
2022/10/29 10:36:47;;;;;;;35.28;17.60;;;;;;;;;;5071367;28;20104;-64
2022/10/29 10:39:20;;;;;;;33.88;17.05;;;;;;;;;;5071180;28;20510;-64
2022/10/29 10:41:48;;;;;;;35.80;16.90;;;;;;;;;;5103373;28;20097;-64
2022/10/29 10:44:14;;;;;;;33.03;16.15;;;;;;;;;;5069790;28;20044;-64
2022/10/29 10:46:42;;;;;;;36.78;17.02;;;;;;;;;;5069660;28;20109;-64
2022/10/29 10:49:20;;;;;;;36.50;16.70;;;;;;;;;;5069067;28;20076;-64
2022/10/29 10:51:48;;;;;;;29.85;15.57;;;;;;;;;;5085854;28;20036;-64
2022/10/29 10:54:20;;;;;;;35.45;16.77;;;;;;;;;;5070821;28;20566;-64
2022/10/29 10:57:03;;;;;;;34.80;16.65;;;;;;;;;;5069180;28;20079;-64
2022/10/29 10:59:40;;;;;;;31.83;16.15;;;;;;;;;;5069417;28;20497;-65
2022/10/29 11:02:14;;;;;;;31.10;15.70;;;;;;;;;;5071065;28;20467;-65
2022/10/29 11:04:41;;;;;;;33.17;16.40;;;;;;;;;;5069305;28;20045;-65
2022/10/29 11:07:09;;;;;;;30.50;15.30;;;;;;;;;;5070709;28;20048;-65
2022/10/29 11:09:38;;;;;;;29.23;15.65;;;;;;;;;;5070797;28;20429;-65
2022/10/29 11:12:25;;;;;;;35.28;15.23;;;;;;;;;;5070048;28;20044;-64
2022/10/29 11:14:53;;;;;;;40.40;15.55;;;;;;;;;;5058829;28;20125;-64
2022/10/29 11:17:26;;;;;;;35.78;15.82;;;;;;;;;;5069398;28;20123;-64
2022/10/29 11:19:55;;;;;;;34.85;15.50;;;;;;;;;;5052383;28;20123;-64
2022/10/29 11:22:27;;;;;;;30.30;15.00;;;;;;;;;;5069555;28;20124;-64
2022/10/29 11:24:53;;;;;;;;;;;;;;;;;;5070033;28;20036;-64
2022/10/29 11:27:19;;;;;;;38.67;15.05;;;;;;;;;;5070058;28;19940;-64
2022/10/29 11:29:54;;;;;;;31.20;14.18;;;;;;;;;;5070742;28;20719;-64
2022/10/29 11:32:39;;;;;;;35.67;15.00;;;;;;;;;;5070529;28;20051;-64
2022/10/29 11:35:09;;;;;;;28.33;14.85;;;;;;;;;;5070644;28;20051;-65
2022/10/29 11:37:52;;;;;;;31.23;14.90;;;;;;;;;;5070703;28;20076;-65
2022/10/29 11:40:37;;;;;;;31.55;15.00;;;;;;;;;;5068779;28;20633;-65
2022/10/29 11:43:07;;;;;;;31.80;14.57;;;;;;;;;;5069265;28;20044;-65
2022/10/29 11:45:33;;;;;;;29.80;15.25;;;;;;;;;;5070589;28;20384;-65
2022/10/29 11:48:10;;;;;;;28.23;13.07;;;;;;;;;;5070225;28;20051;-64
2022/10/29 11:50:40;;;;;;;28.52;13.65;;;;;;;;;;5069268;28;20047;-64
2022/10/29 11:53:15;;;;;;;27.58;13.63;;;;;;;;;;5069259;28;20798;-64
2022/10/29 11:55:54;;;;;;;29.90;14.25;;;;;;;;;;5070114;28;20039;-65
2022/10/29 11:58:32;;;;;;;25.25;13.05;;;;;;;;;;5070655;28;20123;-65
2022/10/29 12:01:00;;;;;;;26.98;13.13;;;;;;;;;;5070313;28;20360;-64
2022/10/29 12:03:26;;;;;;;27.50;12.93;;;;;;;;;;5070914;28;20037;-64
2022/10/29 12:05:56;;;;;;;25.40;12.20;;;;;;;;;;5074121;28;20060;-64
2022/10/29 12:08:40;;;;;;;28.85;12.30;;;;;;;;;;5074212;28;20328;-64
2022/10/29 12:11:19;;;;;;;28.75;12.15;;;;;;;;;;5073398;28;20040;-65
2022/10/29 12:13:53;;;;;;;29.30;11.95;;;;;;;;;;5073707;28;20131;-65
2022/10/29 12:16:19;;;;;;;25.17;11.00;;;;;;;;;;5072810;28;20507;-65
2022/10/29 12:18:45;;;;;;;25.98;12.73;;;;;;;;;;5072062;28;20087;-65
2022/10/29 12:21:23;;;;;;;21.67;10.82;;;;;;;;;;5073847;28;20047;-65
2022/10/29 12:23:49;;;;;;;22.38;10.50;;;;;;;;;;5072650;28;20472;-65
2022/10/29 12:26:27;;;;;;;22.52;10.93;;;;;;;;;;5071886;28;20043;-65
2022/10/29 12:28:58;;;;;;;24.73;11.38;;;;;;;;;;5073622;28;20051;-65
2022/10/29 12:31:35;;;;;;;17.02;10.30;;;;;;;;;;5073617;28;20040;-65
2022/10/29 12:34:02;;;;;;;26.23;11.63;;;;;;;;;;5072081;28;20533;-65
2022/10/29 12:36:32;;;;;;;22.08;10.82;;;;;;;;;;5106283;28;20079;-65
2022/10/29 12:38:59;;;;;;;26.00;11.52;;;;;;;;;;5072258;28;20044;-65
2022/10/29 12:41:35;;;;;;;28.85;11.90;;;;;;;;;;5073373;28;20063;-65
2022/10/29 12:44:21;;;;;;;24.77;10.27;;;;;;;;;;5073215;28;20046;-65
2022/10/29 12:47:02;;;;;;;20.85;11.18;;;;;;;;;;5071547;28;20051;-65
2022/10/29 12:49:41;;;;;;;24.42;11.50;;;;;;;;;;5071714;28;20094;-65
2022/10/29 12:52:12;;;;;;;21.20;10.32;;;;;;;;;;5071904;28;20047;-65
2022/10/29 12:54:39;;;;;;;25.83;11.32;;;;;;;;;;5071446;28;20060;-65
2022/10/29 12:57:12;;;;;;;26.27;12.00;;;;;;;;;;5073256;28;20045;-65
2022/10/29 12:59:38;;;;;;;;;;;;;;;;;;5073724;28;20080;-65
2022/10/29 13:02:27;;;;;;;22.08;11.63;;;;;;;;;;5072957;28;19995;-65
2022/10/29 13:05:08;;;;;;;27.98;13.00;;;;;;;;;;5072416;28;20092;-65
2022/10/29 13:07:35;;;;;;;27.60;12.02;;;;;;;;;;5071437;28;20056;-65
2022/10/29 13:10:20;;;;;;;26.38;12.15;;;;;;;;;;5071258;28;20108;-65
2022/10/29 13:12:58;;;;;;;33.30;12.40;;;;;;;;;;5071248;28;20053;-65
2022/10/29 13:15:35;;;;;;;27.70;12.80;;;;;;;;;;5072050;28;20060;-65
2022/10/29 13:18:08;;;;;;;27.92;11.73;;;;;;;;;;5072253;28;20048;-65
2022/10/29 13:20:36;;;;;;;26.55;12.32;;;;;;;;;;5072791;28;20426;-65
2022/10/29 13:23:03;;;;;;;24.75;12.10;;;;;;;;;;5072921;28;20037;-64
2022/10/29 13:25:35;;;;;;;31.80;12.95;;;;;;;;;;5071011;28;20437;-65
2022/10/29 13:28:21;;;;;;;22.23;12.27;;;;;;;;;;5072673;28;20040;-65
2022/10/29 13:30:47;;;;;;;22.35;11.63;;;;;;;;;;5072063;28;20040;-65
2022/10/29 13:33:25;;;;;;;26.15;12.13;;;;;;;;;;5072264;28;20507;-65
2022/10/29 13:35:54;;;;;;;21.60;11.48;;;;;;;;;;5071053;28;20040;-65
2022/10/29 13:38:40;;;;;;;25.67;11.75;;;;;;;;;;5072558;28;20046;-65
2022/10/29 13:41:09;;;;;;;29.30;12.27;;;;;;;;;;5071779;28;20052;-65
2022/10/29 13:43:35;;;;;;;23.13;10.82;;;;;;;;;;5071039;28;20045;-65
2022/10/29 13:46:13;;;;;;;20.85;12.05;;;;;;;;;;5070415;28;20045;-65
2022/10/29 13:48:40;;;;;;;21.67;12.02;;;;;;;;;;5087722;28;20044;-65
2022/10/29 13:51:09;;;;;;;19.75;11.85;;;;;;;;;;5070520;28;20552;-65
2022/10/29 13:53:41;;;;;;;23.67;12.10;;;;;;;;;;5071912;28;20062;-65
2022/10/29 13:56:09;;;;;;;32.80;12.43;;;;;;;;;;5070529;28;20037;-63
2022/10/29 13:58:36;;;;;;;19.80;10.27;;;;;;;;;;5104697;28;20139;-63
2022/10/29 14:01:07;;;;;;;26.08;11.90;;;;;;;;;;5071623;28;20151;-63
2022/10/29 14:03:51;;;;;;;23.00;10.90;;;;;;;;;;5072146;28;20119;-63
2022/10/29 14:06:22;;;;;;;23.63;11.10;;;;;;;;;;5070285;28;20044;-63
2022/10/29 14:09:09;;;;;;;22.95;10.93;;;;;;;;;;5071059;28;20075;-63
2022/10/29 14:11:38;;;;;;;28.20;11.25;;;;;;;;;;5022968;28;20045;-63
2022/10/29 14:14:06;;;;;;;23.63;11.00;;;;;;;;;;5071339;28;20522;-63
2022/10/29 14:16:33;;;;;;;21.77;10.45;;;;;;;;;;5071324;28;20429;-63
2022/10/29 14:19:12;;;;;;;25.77;11.57;;;;;;;;;;5071735;28;20044;-63
2022/10/29 14:21:38;;;;;;;24.52;10.80;;;;;;;;;;5070195;28;20041;-63
2022/10/29 14:24:06;;;;;;;25.83;10.48;;;;;;;;;;5070899;28;20143;-63
2022/10/29 14:26:33;;;;;;;22.45;11.18;;;;;;;;;;5070982;28;20089;-63
2022/10/29 14:29:13;;;;;;;26.02;10.88;;;;;;;;;;5070976;28;20128;-63
2022/10/29 14:31:39;;;;;;;24.40;10.73;;;;;;;;;;5070639;28;20139;-63
2022/10/29 14:34:07;;;;;;;23.88;10.90;;;;;;;;;;5069776;28;20040;-63
2022/10/29 14:36:33;;;;;;;24.15;10.55;;;;;;;;;;5069812;28;20047;-63